Aviation Digital Data Service (ADDS)

Output produced by METARs form (1304 UTC 30 July 2016)
found at http://aviationweather.gov/adds/metars/
 
KBUF 301120Z 3012/3112 07012KT P6SM VCSH OVC070 
     FM301300 08011KT 6SM -SHRA OVC040 
     FM301600 10010KT P6SM VCSH OVC060 
     FM301800 09010KT P6SM BKN060 
     FM310600 09006KT P6SM VCSH OVC050 
     FM310800 08005KT 6SM -SHRA OVC050